GMTN/TTU METAR and TAF weather

Enter ICAO airport designator
Station Type Date Time Source
GMTN METAR 2020/07/11 00:00 UTC NOAA

GMTN 110000Z 08007KT 6000 BKN006 23/22 Q1012 NOSIG


Station Type Date Time Source
GMTN Decoded METAR 2020/07/11 00:00 UTC NOAA

Tetuan / Sania Ramel, Morocco (GMTN) 35-35N 005-20W 10M
Jul 10, 2020 - 08:00 PM EDT / 2020.07.11 0000 UTC
Wind: from the E (080 degrees) at 8 MPH (7 KT):0
Visibility: 3 mile(s):0
Sky conditions: mostly cloudy
Temperature: 73 F (23 C)
Dew Point: 71 F (22 C)
Relative Humidity: 94%
Pressure (altimeter): 29.88 in. Hg (1012 hPa)
ob: GMTN 110000Z 08007KT 6000 BKN006 23/22 Q1012 NOSIG
cycle: 0

Station Type Date Time Source
GMTN TAF UTC NOAA

Error!

Example: see airport list